createdAt,value
2019-02-16T00:02:55.838Z,23.20
2019-02-16T00:06:11.982Z,23.20
2019-02-16T00:09:27.999Z,23.20
2019-02-16T00:12:43.837Z,23.20
2019-02-16T00:15:59.438Z,23.20
2019-02-16T00:19:15.501Z,23.20
2019-02-16T00:22:30.792Z,23.20
2019-02-16T00:25:46.229Z,23.20
2019-02-16T00:29:02.239Z,23.20
2019-02-16T00:32:18.325Z,23.20
2019-02-16T00:35:34.167Z,23.10
2019-02-16T00:38:50.058Z,23.10
2019-02-16T00:42:05.830Z,23.10
2019-02-16T00:45:19.476Z,23.10
2019-02-16T00:48:42.170Z,23.10
2019-02-16T00:51:58.147Z,23.10
2019-02-16T00:55:14.219Z,23.10
2019-02-16T00:58:29.470Z,23.20
2019-02-16T01:01:45.607Z,23.10
2019-02-16T01:05:01.556Z,23.10
2019-02-16T01:08:17.580Z,23.10
2019-02-16T01:11:33.538Z,23.10
2019-02-16T01:14:49.139Z,23.10
2019-02-16T01:18:04.803Z,23.10
2019-02-16T01:21:22.746Z,23.10
2019-02-16T01:24:38.316Z,23.10
2019-02-16T01:27:54.464Z,23.10
2019-02-16T01:31:10.270Z,23.10
2019-02-16T01:34:25.450Z,23.10
2019-02-16T01:37:40.723Z,23.10
2019-02-16T01:40:56.794Z,23.10
2019-02-16T01:44:12.465Z,23.10
2019-02-16T01:47:28.203Z,23.10
2019-02-16T01:50:43.790Z,23.10
2019-02-16T01:53:59.881Z,23.00
2019-02-16T01:57:15.707Z,23.00
2019-02-16T02:00:29.355Z,23.00
2019-02-16T02:03:52.035Z,23.00
2019-02-16T02:07:07.438Z,23.00
2019-02-16T02:10:22.943Z,23.00
2019-02-16T02:13:38.407Z,23.00
2019-02-16T02:16:53.734Z,23.00
2019-02-16T02:20:09.508Z,23.00
2019-02-16T02:23:25.438Z,23.00
2019-02-16T02:26:41.550Z,23.00
2019-02-16T02:29:57.474Z,23.00
2019-02-16T02:33:13.353Z,23.00
2019-02-16T02:36:28.691Z,23.00
2019-02-16T02:39:44.659Z,23.00
2019-02-16T02:43:00.250Z,23.00
2019-02-16T02:46:16.427Z,23.00
2019-02-16T02:49:32.114Z,22.90
2019-02-16T02:52:48.169Z,23.00
2019-02-16T02:56:03.424Z,23.00
2019-02-16T02:59:19.160Z,23.00
2019-02-16T03:02:35.021Z,23.00
2019-02-16T03:05:50.930Z,23.00
2019-02-16T03:09:06.964Z,23.00
2019-02-16T03:12:23.002Z,23.00
2019-02-16T03:15:38.821Z,23.00
2019-02-16T03:18:54.527Z,23.00
2019-02-16T03:22:10.299Z,23.00
2019-02-16T03:25:26.054Z,23.00
2019-02-16T03:28:41.700Z,22.90
2019-02-16T03:31:57.567Z,22.90
2019-02-16T03:35:12.908Z,22.90
2019-02-16T03:38:28.835Z,22.90
2019-02-16T03:41:44.162Z,22.90
2019-02-16T03:45:00.313Z,22.90
2019-02-16T03:48:16.377Z,22.90
2019-02-16T03:51:32.343Z,22.90
2019-02-16T03:54:47.552Z,22.90
2019-02-16T03:58:03.621Z,22.90
2019-02-16T04:01:19.104Z,22.90
2019-02-16T04:04:34.481Z,22.90
2019-02-16T04:07:50.476Z,22.90
2019-02-16T04:11:05.735Z,22.90
2019-02-16T04:14:21.023Z,22.90
2019-02-16T04:17:36.759Z,22.90
2019-02-16T04:20:51.931Z,22.90
2019-02-16T04:24:07.784Z,22.90
2019-02-16T04:27:23.583Z,22.90
2019-02-16T04:30:39.277Z,22.90
2019-02-16T04:33:55.443Z,22.90
2019-02-16T04:37:11.490Z,22.90
2019-02-16T04:40:27.459Z,22.90
2019-02-16T04:43:43.638Z,22.90
2019-02-16T04:46:59.139Z,22.90
2019-02-16T04:50:15.061Z,22.90
2019-02-16T04:53:31.133Z,22.90
2019-02-16T04:56:47.014Z,22.90
2019-02-16T05:00:02.364Z,22.80
2019-02-16T05:03:16.129Z,22.80
2019-02-16T05:06:38.886Z,22.80
2019-02-16T05:09:54.099Z,22.80
2019-02-16T05:13:09.460Z,22.80
2019-02-16T05:16:25.422Z,22.80
2019-02-16T05:19:41.262Z,22.80
2019-02-16T05:22:57.387Z,22.80
2019-02-16T05:26:13.076Z,22.80
2019-02-16T05:33:03.018Z,22.80
2019-02-16T05:36:16.698Z,22.80
2019-02-16T05:39:39.453Z,22.80
2019-02-16T05:42:55.494Z,22.80
2019-02-16T05:46:11.231Z,22.80
2019-02-16T05:49:27.164Z,22.80
2019-02-16T05:52:43.075Z,22.80
2019-02-16T05:55:58.898Z,22.80
2019-02-16T05:59:14.314Z,22.80
2019-02-16T06:02:30.042Z,22.80
2019-02-16T06:05:43.661Z,22.80
2019-02-16T06:09:06.339Z,22.80
2019-02-16T06:12:21.965Z,22.80
2019-02-16T06:15:37.838Z,22.80
2019-02-16T06:18:51.455Z,22.80
2019-02-16T06:22:07.035Z,22.80
2019-02-16T06:25:22.881Z,22.80
2019-02-16T06:28:38.898Z,22.80
2019-02-16T06:31:54.863Z,22.80
2019-02-16T06:35:15.155Z,22.80
2019-02-16T06:38:30.411Z,22.80
2019-02-16T06:41:46.538Z,22.80
2019-02-16T06:45:01.779Z,22.70
2019-02-16T06:48:17.459Z,22.80
2019-02-16T06:51:33.225Z,22.70
2019-02-16T06:54:49.133Z,22.70
2019-02-16T06:58:04.379Z,22.70
2019-02-16T07:01:20.438Z,22.70
2019-02-16T07:04:36.459Z,23.30
2019-02-16T07:07:52.575Z,22.80
2019-02-16T07:11:08.633Z,22.70
2019-02-16T07:14:23.950Z,22.70
2019-02-16T07:17:59.156Z,22.80
2019-02-16T07:21:14.600Z,22.70
2019-02-16T07:24:30.307Z,22.70
2019-02-16T07:27:46.312Z,22.80
2019-02-16T07:31:02.007Z,22.70
2019-02-16T07:34:18.224Z,22.70
2019-02-16T07:37:33.921Z,22.80
2019-02-16T07:40:49.889Z,22.80
2019-02-16T07:44:07.483Z,22.80
2019-02-16T07:47:41.886Z,22.70
2019-02-16T07:51:01.859Z,22.70
2019-02-16T07:54:18.861Z,22.70
2019-02-16T07:57:35.785Z,22.70
2019-02-16T08:01:10.403Z,22.80
2019-02-16T08:04:30.162Z,22.70
2019-02-16T08:07:47.492Z,22.70
2019-02-16T08:11:07.514Z,22.90
2019-02-16T08:14:15.359Z,22.70
2019-02-16T08:17:57.223Z,22.70
2019-02-16T08:28:13.584Z,22.80
2019-02-16T08:35:18.066Z,22.80
2019-02-16T08:38:37.931Z,22.80
2019-02-16T08:41:55.746Z,22.90
2019-02-16T08:45:16.102Z,22.90
2019-02-16T08:48:33.072Z,22.90
2019-02-16T08:51:50.307Z,22.90
2019-02-16T09:02:19.621Z,23.00
2019-02-16T09:05:36.725Z,23.00
2019-02-16T09:08:53.979Z,23.00
2019-02-16T09:12:30.279Z,23.00
2019-02-16T09:16:04.742Z,23.00
2019-02-16T09:19:21.943Z,23.10
2019-02-16T09:26:07.989Z,23.10
2019-02-16T09:33:11.362Z,23.10
2019-02-16T09:36:28.829Z,23.10
2019-02-16T09:40:09.555Z,23.20
2019-02-16T09:43:42.451Z,23.20
2019-02-16T09:47:16.905Z,23.20
2019-02-16T09:50:51.762Z,23.20
2019-02-16T09:54:27.030Z,23.20
2019-02-16T09:58:01.404Z,23.20
2019-02-16T10:01:21.255Z,23.20
2019-02-16T10:04:44.620Z,23.20
2019-02-16T10:22:40.712Z,23.30
2019-02-16T10:25:57.902Z,23.30
2019-02-16T10:29:14.861Z,23.30
2019-02-16T10:36:13.681Z,23.30
2019-02-16T10:39:33.505Z,23.40
2019-02-16T10:42:50.506Z,23.40
2019-02-16T10:46:25.150Z,23.40
2019-02-16T10:49:44.699Z,23.40
2019-02-16T10:53:04.750Z,23.40
2019-02-16T11:00:08.212Z,23.50
2019-02-16T11:10:36.676Z,23.50
2019-02-16T11:14:11.087Z,23.50
2019-02-16T11:17:31.031Z,23.60
2019-02-16T11:21:08.526Z,23.60
2019-02-16T11:24:25.523Z,23.60
2019-02-16T11:28:00.901Z,23.60
2019-02-16T11:38:27.291Z,23.60
2019-02-16T11:41:44.806Z,23.70
2019-02-16T11:52:31.060Z,23.70
2019-02-16T11:56:13.007Z,23.70
2019-02-16T11:59:30.103Z,23.80
2019-02-16T12:03:04.602Z,23.80
2019-02-16T12:10:08.959Z,23.80
2019-02-16T12:13:29.038Z,23.80
2019-02-16T12:17:03.618Z,23.90
2019-02-16T12:20:20.587Z,23.90
2019-02-16T12:23:37.503Z,23.90
2019-02-16T12:30:24.024Z,23.90
2019-02-16T12:33:41.730Z,23.90
2019-02-16T12:36:58.883Z,24.00
2019-02-16T12:40:15.811Z,24.00
2019-02-16T12:43:50.476Z,24.00
2019-02-16T12:47:25.381Z,24.00
2019-02-16T12:51:00.405Z,24.10
2019-02-16T12:54:20.445Z,24.10
2019-02-16T12:57:37.696Z,24.10
2019-02-16T13:00:57.801Z,24.10
2019-02-16T13:04:14.920Z,24.10
2019-02-16T13:07:32.126Z,24.10
2019-02-16T13:10:49.104Z,24.10
2019-02-16T13:14:23.669Z,24.20
2019-02-16T13:17:43.634Z,24.20
2019-02-16T13:21:00.838Z,24.20
2019-02-16T13:31:18.898Z,24.30
2019-02-16T13:34:36.512Z,24.30
2019-02-16T13:37:57.229Z,24.40
2019-02-16T13:41:14.218Z,24.40
2019-02-16T13:44:48.639Z,24.40
2019-02-16T13:51:50.868Z,24.40
2019-02-16T13:55:36.250Z,24.40
2019-02-16T14:02:22.192Z,24.50
2019-02-16T14:09:08.074Z,24.50
2019-02-16T14:12:25.009Z,24.50
2019-02-16T14:16:00.336Z,24.60
2019-02-16T14:19:15.726Z,24.60
2019-02-16T14:22:31.659Z,24.60
2019-02-16T14:25:47.436Z,24.60
2019-02-16T14:29:02.679Z,24.60
2019-02-16T14:32:05.938Z,24.60
2019-02-16T14:35:21.716Z,24.60
2019-02-16T14:38:39.147Z,24.60
2019-02-16T14:41:54.729Z,24.60
2019-02-16T14:45:10.774Z,24.60
2019-02-16T14:48:26.905Z,24.60
2019-02-16T14:51:42.220Z,24.50
2019-02-16T14:54:58.004Z,24.50
2019-02-16T14:58:14.157Z,24.50
2019-02-16T15:01:31.308Z,24.50
2019-02-16T15:04:47.270Z,24.50
2019-02-16T15:08:03.264Z,24.50
2019-02-16T15:11:19.265Z,24.50
2019-02-16T15:14:35.037Z,24.40
2019-02-16T15:17:51.186Z,24.40
2019-02-16T15:21:07.367Z,24.40
2019-02-16T15:24:23.558Z,24.40
2019-02-16T15:27:39.507Z,24.40
2019-02-16T15:30:55.351Z,24.40
2019-02-16T15:34:11.021Z,24.40
2019-02-16T15:37:26.989Z,24.30
2019-02-16T15:40:43.072Z,24.30
2019-02-16T15:43:58.346Z,24.30
2019-02-16T15:47:13.648Z,24.30
2019-02-16T15:50:29.652Z,24.30
2019-02-16T15:53:45.790Z,24.30
2019-02-16T15:57:01.748Z,24.30
2019-02-16T16:00:18.610Z,24.30
2019-02-16T16:03:34.357Z,24.30
2019-02-16T16:06:50.372Z,24.30
2019-02-16T16:10:25.490Z,24.30
2019-02-16T16:13:42.767Z,24.30
2019-02-16T16:17:17.543Z,24.30
2019-02-16T16:24:23.410Z,24.30
2019-02-16T16:27:40.767Z,24.30
2019-02-16T16:34:44.093Z,24.20
2019-02-16T16:38:18.529Z,24.20
2019-02-16T16:41:38.058Z,24.20
2019-02-16T16:44:58.490Z,24.20
2019-02-16T16:48:18.019Z,24.20
2019-02-16T16:51:35.332Z,24.20
2019-02-16T16:55:10.061Z,24.20
2019-02-16T16:58:32.497Z,24.20
2019-02-16T17:05:33.484Z,24.20
2019-02-16T17:09:08.256Z,24.20
2019-02-16T17:12:25.164Z,24.20
2019-02-16T17:16:00.491Z,24.20
2019-02-16T17:19:17.740Z,24.20
2019-02-16T17:22:52.963Z,24.20
2019-02-16T17:26:10.375Z,24.20
2019-02-16T17:29:45.730Z,24.20
2019-02-16T17:33:02.958Z,24.20
2019-02-16T17:36:37.478Z,24.20
2019-02-16T17:40:12.060Z,24.20
2019-02-16T17:43:46.546Z,24.10
2019-02-16T17:50:49.281Z,24.10
2019-02-16T17:54:09.275Z,24.10
2019-02-16T17:57:31.702Z,24.10
2019-02-16T18:01:13.570Z,24.10
2019-02-16T18:04:34.214Z,24.10
2019-02-16T18:07:53.864Z,24.10
2019-02-16T18:11:11.566Z,24.10
2019-02-16T18:14:31.664Z,24.10
2019-02-16T18:21:28.664Z,24.10
2019-02-16T18:28:20.894Z,24.10
2019-02-16T18:38:54.658Z,24.10
2019-02-16T18:42:12.010Z,24.10
2019-02-16T18:45:29.782Z,24.10
2019-02-16T18:48:50.355Z,24.10
2019-02-16T18:51:58.549Z,24.10
2019-02-16T18:55:40.422Z,24.10
2019-02-16T18:59:22.311Z,24.10
2019-02-16T19:02:56.932Z,24.10
2019-02-16T19:09:43.190Z,24.10
2019-02-16T19:13:03.058Z,24.10
2019-02-16T19:16:22.878Z,24.00
2019-02-16T19:19:40.179Z,24.00
2019-02-16T19:23:14.944Z,24.10
2019-02-16T19:30:18.018Z,24.10
2019-02-16T19:33:35.124Z,24.00
2019-02-16T19:44:15.811Z,24.00
2019-02-16T19:47:51.958Z,24.10
2019-02-16T19:51:08.794Z,24.00
2019-02-16T19:54:44.222Z,24.00
2019-02-16T19:58:19.516Z,24.00
2019-02-16T20:01:42.567Z,24.00
2019-02-16T20:04:57.837Z,24.00
2019-02-16T20:08:18.419Z,24.00
2019-02-16T20:11:37.895Z,24.00
2019-02-16T20:15:12.365Z,24.00
2019-02-16T20:18:29.579Z,24.00
2019-02-16T20:21:46.614Z,24.00
2019-02-16T20:25:03.585Z,24.00
2019-02-16T20:28:41.154Z,24.00
2019-02-16T20:35:27.041Z,24.00
2019-02-16T20:39:01.507Z,24.00
2019-02-16T20:46:04.923Z,24.00
2019-02-16T20:56:10.623Z,24.00
2019-02-16T20:59:52.490Z,24.00
2019-02-16T21:06:39.270Z,24.00
2019-02-16T21:09:59.834Z,24.00
2019-02-16T21:13:19.611Z,24.00
2019-02-16T21:16:34.894Z,24.00
2019-02-16T21:20:09.966Z,24.00
2019-02-16T21:26:54.550Z,24.00
2019-02-16T21:30:36.422Z,24.00
2019-02-16T21:33:57.618Z,24.00
2019-02-16T21:37:32.879Z,24.00
2019-02-16T21:41:07.587Z,24.00
2019-02-16T21:48:10.560Z,24.00
2019-02-16T21:51:30.432Z,24.00
2019-02-16T21:54:47.394Z,23.90
2019-02-16T21:58:22.753Z,23.90
2019-02-16T22:01:57.367Z,23.90
2019-02-16T22:12:31.160Z,23.80
2019-02-16T22:15:46.768Z,23.80
2019-02-16T22:22:27.355Z,23.80
2019-02-16T22:29:06.710Z,23.80
2019-02-16T22:32:22.246Z,23.70
2019-02-16T22:35:35.855Z,23.70
2019-02-16T22:38:58.547Z,23.70
2019-02-16T22:42:13.884Z,23.70
2019-02-16T22:45:29.793Z,23.70
2019-02-16T22:48:45.675Z,23.60
2019-02-16T22:52:00.887Z,23.60
2019-02-16T22:55:14.540Z,23.60
2019-02-16T22:58:37.230Z,23.60
2019-02-16T23:01:52.714Z,23.60
2019-02-16T23:05:07.982Z,23.60
2019-02-16T23:08:23.829Z,23.50
2019-02-16T23:11:39.650Z,23.50
2019-02-16T23:14:54.995Z,23.50
2019-02-16T23:18:10.372Z,23.50
2019-02-16T23:21:25.669Z,23.50
2019-02-16T23:24:41.471Z,23.40
2019-02-16T23:27:57.572Z,23.40
2019-02-16T23:31:13.603Z,23.40
2019-02-16T23:34:28.879Z,23.40
2019-02-16T23:37:44.120Z,23.40
2019-02-16T23:40:59.918Z,23.40
2019-02-16T23:44:15.909Z,23.40
2019-02-16T23:47:31.973Z,23.40
2019-02-16T23:50:47.939Z,23.30
2019-02-16T23:54:04.003Z,23.30
2019-02-16T23:57:20.002Z,23.30
